sensor_id;sensor_type;location;lat;lon;timestamp;temperature;humidity
37050;DHT22;22958;51.232;6.826;2024-03-29T00:01:03;9.20;1.00
37050;DHT22;22958;51.232;6.826;2024-03-29T00:03:28;9.20;1.00
37050;DHT22;22958;51.232;6.826;2024-03-29T00:05:54;9.20;1.00
37050;DHT22;22958;51.232;6.826;2024-03-29T00:08:19;9.20;1.00
37050;DHT22;22958;51.232;6.826;2024-03-29T00:10:47;9.20;1.00
37050;DHT22;22958;51.232;6.826;2024-03-29T00:13:12;9.20;1.00
37050;DHT22;22958;51.232;6.826;2024-03-29T00:15:38;9.20;1.00
37050;DHT22;22958;51.232;6.826;2024-03-29T00:18:04;9.10;1.00
37050;DHT22;22958;51.232;6.826;2024-03-29T00:20:30;9.10;1.00
37050;DHT22;22958;51.232;6.826;2024-03-29T00:22:55;9.10;1.00
37050;DHT22;22958;51.232;6.826;2024-03-29T00:25:21;9.00;1.00
37050;DHT22;22958;51.232;6.826;2024-03-29T00:27:47;9.00;1.00
37050;DHT22;22958;51.232;6.826;2024-03-29T00:30:14;9.10;1.00
37050;DHT22;22958;51.232;6.826;2024-03-29T00:32:39;9.10;1.00
37050;DHT22;22958;51.232;6.826;2024-03-29T00:35:05;9.00;1.00
37050;DHT22;22958;51.232;6.826;2024-03-29T00:37:31;9.00;1.00
37050;DHT22;22958;51.232;6.826;2024-03-29T00:39:56;9.10;1.00
37050;DHT22;22958;51.232;6.826;2024-03-29T00:42:22;9.00;1.00
37050;DHT22;22958;51.232;6.826;2024-03-29T00:44:47;9.00;1.00
37050;DHT22;22958;51.232;6.826;2024-03-29T00:47:13;9.00;1.00
37050;DHT22;22958;51.232;6.826;2024-03-29T00:49:39;9.00;1.00
37050;DHT22;22958;51.232;6.826;2024-03-29T00:52:05;9.00;1.00
37050;DHT22;22958;51.232;6.826;2024-03-29T00:54:31;9.00;1.00
37050;DHT22;22958;51.232;6.826;2024-03-29T00:56:57;9.00;1.00
37050;DHT22;22958;51.232;6.826;2024-03-29T00:59:22;9.00;1.00
37050;DHT22;22958;51.232;6.826;2024-03-29T01:01:48;9.00;1.00
37050;DHT22;22958;51.232;6.826;2024-03-29T01:04:14;9.00;1.00
37050;DHT22;22958;51.232;6.826;2024-03-29T01:06:40;9.00;1.00
37050;DHT22;22958;51.232;6.826;2024-03-29T01:09:06;9.00;1.00
37050;DHT22;22958;51.232;6.826;2024-03-29T01:11:32;9.00;1.00
37050;DHT22;22958;51.232;6.826;2024-03-29T01:13:58;9.00;1.00
37050;DHT22;22958;51.232;6.826;2024-03-29T01:16:23;9.00;1.00
37050;DHT22;22958;51.232;6.826;2024-03-29T01:18:49;9.00;1.00
37050;DHT22;22958;51.232;6.826;2024-03-29T01:21:15;9.10;1.00
37050;DHT22;22958;51.232;6.826;2024-03-29T01:23:40;9.10;1.00
37050;DHT22;22958;51.232;6.826;2024-03-29T01:26:06;9.10;1.00
37050;DHT22;22958;51.232;6.826;2024-03-29T01:28:32;9.20;1.00
37050;DHT22;22958;51.232;6.826;2024-03-29T01:30:58;9.20;1.00
37050;DHT22;22958;51.232;6.826;2024-03-29T01:33:27;9.20;1.00
37050;DHT22;22958;51.232;6.826;2024-03-29T01:35:53;9.20;1.00
37050;DHT22;22958;51.232;6.826;2024-03-29T01:38:19;9.30;1.00
37050;DHT22;22958;51.232;6.826;2024-03-29T01:40:45;9.30;1.00
37050;DHT22;22958;51.232;6.826;2024-03-29T01:43:10;9.30;1.00
37050;DHT22;22958;51.232;6.826;2024-03-29T01:45:39;9.30;1.00
37050;DHT22;22958;51.232;6.826;2024-03-29T01:48:06;9.40;1.00
37050;DHT22;22958;51.232;6.826;2024-03-29T01:50:32;9.40;1.00
37050;DHT22;22958;51.232;6.826;2024-03-29T01:52:58;9.40;1.00
37050;DHT22;22958;51.232;6.826;2024-03-29T01:55:24;9.40;1.00
37050;DHT22;22958;51.232;6.826;2024-03-29T01:57:50;9.50;1.00
37050;DHT22;22958;51.232;6.826;2024-03-29T02:00:17;9.50;1.00
37050;DHT22;22958;51.232;6.826;2024-03-29T02:02:43;9.50;1.00
37050;DHT22;22958;51.232;6.826;2024-03-29T02:05:09;9.60;1.00
37050;DHT22;22958;51.232;6.826;2024-03-29T02:07:35;9.50;1.00
37050;DHT22;22958;51.232;6.826;2024-03-29T02:10:01;9.60;1.00
37050;DHT22;22958;51.232;6.826;2024-03-29T02:12:28;9.60;1.00
37050;DHT22;22958;51.232;6.826;2024-03-29T02:14:53;9.70;1.00
37050;DHT22;22958;51.232;6.826;2024-03-29T02:17:19;9.70;1.00
37050;DHT22;22958;51.232;6.826;2024-03-29T02:19:44;9.70;1.00
37050;DHT22;22958;51.232;6.826;2024-03-29T02:22:13;9.70;1.00
37050;DHT22;22958;51.232;6.826;2024-03-29T02:24:40;9.80;1.00
37050;DHT22;22958;51.232;6.826;2024-03-29T02:27:05;9.90;1.00
37050;DHT22;22958;51.232;6.826;2024-03-29T02:29:31;10.00;1.00
37050;DHT22;22958;51.232;6.826;2024-03-29T02:31:56;10.10;1.00
37050;DHT22;22958;51.232;6.826;2024-03-29T02:34:22;10.10;1.00
37050;DHT22;22958;51.232;6.826;2024-03-29T02:36:48;10.10;1.00
37050;DHT22;22958;51.232;6.826;2024-03-29T02:39:14;10.00;1.00
37050;DHT22;22958;51.232;6.826;2024-03-29T02:41:39;10.00;1.00
37050;DHT22;22958;51.232;6.826;2024-03-29T02:44:05;10.00;1.00
37050;DHT22;22958;51.232;6.826;2024-03-29T02:46:30;9.90;1.00
37050;DHT22;22958;51.232;6.826;2024-03-29T02:48:56;9.90;1.00
37050;DHT22;22958;51.232;6.826;2024-03-29T02:51:21;9.90;1.00
37050;DHT22;22958;51.232;6.826;2024-03-29T02:53:47;9.90;1.00
37050;DHT22;22958;51.232;6.826;2024-03-29T02:56:12;9.80;1.00
37050;DHT22;22958;51.232;6.826;2024-03-29T02:58:39;9.90;1.00
37050;DHT22;22958;51.232;6.826;2024-03-29T03:01:08;9.80;1.00
37050;DHT22;22958;51.232;6.826;2024-03-29T03:03:35;9.80;1.00
37050;DHT22;22958;51.232;6.826;2024-03-29T03:06:00;9.80;1.00
37050;DHT22;22958;51.232;6.826;2024-03-29T03:08:26;9.70;1.00
37050;DHT22;22958;51.232;6.826;2024-03-29T03:11:10;9.70;1.00
37050;DHT22;22958;51.232;6.826;2024-03-29T03:13:36;9.60;1.00
37050;DHT22;22958;51.232;6.826;2024-03-29T03:16:01;9.60;1.00
37050;DHT22;22958;51.232;6.826;2024-03-29T03:18:27;9.60;1.00
37050;DHT22;22958;51.232;6.826;2024-03-29T03:20:56;9.60;1.00
37050;DHT22;22958;51.232;6.826;2024-03-29T03:23:25;9.60;1.00
37050;DHT22;22958;51.232;6.826;2024-03-29T03:25:55;9.60;1.00
37050;DHT22;22958;51.232;6.826;2024-03-29T03:28:21;9.60;1.00
37050;DHT22;22958;51.232;6.826;2024-03-29T03:30:51;9.60;1.00
37050;DHT22;22958;51.232;6.826;2024-03-29T03:33:17;9.50;1.00
37050;DHT22;22958;51.232;6.826;2024-03-29T03:35:43;9.60;1.00
37050;DHT22;22958;51.232;6.826;2024-03-29T03:38:09;9.50;1.00
37050;DHT22;22958;51.232;6.826;2024-03-29T03:40:35;9.60;1.00
37050;DHT22;22958;51.232;6.826;2024-03-29T03:43:05;9.60;1.00
37050;DHT22;22958;51.232;6.826;2024-03-29T03:45:40;9.50;1.00
37050;DHT22;22958;51.232;6.826;2024-03-29T03:48:08;9.50;1.00
37050;DHT22;22958;51.232;6.826;2024-03-29T03:50:34;9.50;1.00
37050;DHT22;22958;51.232;6.826;2024-03-29T03:53:00;9.60;1.00
37050;DHT22;22958;51.232;6.826;2024-03-29T03:55:26;9.50;1.00
37050;DHT22;22958;51.232;6.826;2024-03-29T03:57:53;9.50;1.00
37050;DHT22;22958;51.232;6.826;2024-03-29T04:00:19;9.50;1.00
37050;DHT22;22958;51.232;6.826;2024-03-29T04:02:50;9.60;1.00
37050;DHT22;22958;51.232;6.826;2024-03-29T04:05:20;9.50;1.00
37050;DHT22;22958;51.232;6.826;2024-03-29T04:07:45;9.50;1.00
37050;DHT22;22958;51.232;6.826;2024-03-29T04:10:11;9.60;1.00
37050;DHT22;22958;51.232;6.826;2024-03-29T04:12:37;9.70;1.00
37050;DHT22;22958;51.232;6.826;2024-03-29T04:15:03;9.60;1.00
37050;DHT22;22958;51.232;6.826;2024-03-29T04:17:29;9.60;1.00
37050;DHT22;22958;51.232;6.826;2024-03-29T04:19:58;9.70;1.00
37050;DHT22;22958;51.232;6.826;2024-03-29T04:22:24;9.70;1.00
37050;DHT22;22958;51.232;6.826;2024-03-29T04:24:51;9.70;1.00
37050;DHT22;22958;51.232;6.826;2024-03-29T04:27:16;9.70;1.00
37050;DHT22;22958;51.232;6.826;2024-03-29T04:29:42;9.70;1.00
37050;DHT22;22958;51.232;6.826;2024-03-29T04:32:08;9.70;1.00
37050;DHT22;22958;51.232;6.826;2024-03-29T04:34:33;9.60;1.00
37050;DHT22;22958;51.232;6.826;2024-03-29T04:36:59;9.70;1.00
37050;DHT22;22958;51.232;6.826;2024-03-29T04:39:25;9.70;1.00
37050;DHT22;22958;51.232;6.826;2024-03-29T04:41:51;9.70;1.00
37050;DHT22;22958;51.232;6.826;2024-03-29T04:44:27;9.60;1.00
37050;DHT22;22958;51.232;6.826;2024-03-29T04:46:53;9.60;1.00
37050;DHT22;22958;51.232;6.826;2024-03-29T04:49:21;9.50;1.00
37050;DHT22;22958;51.232;6.826;2024-03-29T04:51:49;9.40;1.00
37050;DHT22;22958;51.232;6.826;2024-03-29T04:54:15;9.30;13.20
37050;DHT22;22958;51.232;6.826;2024-03-29T04:56:41;9.20;43.50
37050;DHT22;22958;51.232;6.826;2024-03-29T04:59:07;9.20;58.70
37050;DHT22;22958;51.232;6.826;2024-03-29T05:01:33;9.20;93.40
37050;DHT22;22958;51.232;6.826;2024-03-29T05:04:00;9.10;99.90
37050;DHT22;22958;51.232;6.826;2024-03-29T05:06:26;9.00;99.90
37050;DHT22;22958;51.232;6.826;2024-03-29T05:08:51;9.00;99.90
37050;DHT22;22958;51.232;6.826;2024-03-29T05:11:18;9.00;99.90
37050;DHT22;22958;51.232;6.826;2024-03-29T05:13:44;9.00;99.90
37050;DHT22;22958;51.232;6.826;2024-03-29T05:16:10;8.90;1.00
37050;DHT22;22958;51.232;6.826;2024-03-29T05:18:35;8.90;1.00
37050;DHT22;22958;51.232;6.826;2024-03-29T05:21:00;8.90;99.90
37050;DHT22;22958;51.232;6.826;2024-03-29T05:23:26;8.90;1.00
37050;DHT22;22958;51.232;6.826;2024-03-29T05:25:51;8.80;1.00
37050;DHT22;22958;51.232;6.826;2024-03-29T05:28:17;8.90;1.00
37050;DHT22;22958;51.232;6.826;2024-03-29T05:30:43;8.80;1.00
37050;DHT22;22958;51.232;6.826;2024-03-29T05:33:09;8.90;1.00
37050;DHT22;22958;51.232;6.826;2024-03-29T05:35:34;8.90;17.40
37050;DHT22;22958;51.232;6.826;2024-03-29T05:38:00;8.90;38.30
37050;DHT22;22958;51.232;6.826;2024-03-29T05:40:25;8.80;99.90
37050;DHT22;22958;51.232;6.826;2024-03-29T05:42:53;8.80;1.00
37050;DHT22;22958;51.232;6.826;2024-03-29T05:45:29;8.80;1.00
37050;DHT22;22958;51.232;6.826;2024-03-29T05:47:56;8.70;1.00
37050;DHT22;22958;51.232;6.826;2024-03-29T05:50:23;8.70;1.00
37050;DHT22;22958;51.232;6.826;2024-03-29T05:52:50;8.70;1.00
37050;DHT22;22958;51.232;6.826;2024-03-29T05:55:15;8.70;1.00
37050;DHT22;22958;51.232;6.826;2024-03-29T05:57:41;8.60;57.20
37050;DHT22;22958;51.232;6.826;2024-03-29T06:00:08;8.60;1.00
37050;DHT22;22958;51.232;6.826;2024-03-29T06:02:37;8.60;1.00
37050;DHT22;22958;51.232;6.826;2024-03-29T06:05:03;8.70;1.00
37050;DHT22;22958;51.232;6.826;2024-03-29T06:07:30;8.60;99.90
37050;DHT22;22958;51.232;6.826;2024-03-29T06:09:58;8.60;10.40
37050;DHT22;22958;51.232;6.826;2024-03-29T06:12:24;8.50;99.90
37050;DHT22;22958;51.232;6.826;2024-03-29T06:14:49;8.50;1.00
37050;DHT22;22958;51.232;6.826;2024-03-29T06:17:34;8.50;1.00
37050;DHT22;22958;51.232;6.826;2024-03-29T06:20:01;8.50;1.00
37050;DHT22;22958;51.232;6.826;2024-03-29T06:22:28;8.50;1.00
37050;DHT22;22958;51.232;6.826;2024-03-29T06:24:56;8.50;99.90
37050;DHT22;22958;51.232;6.826;2024-03-29T06:27:30;8.50;99.90
37050;DHT22;22958;51.232;6.826;2024-03-29T06:29:56;8.50;99.90
37050;DHT22;22958;51.232;6.826;2024-03-29T06:32:22;8.50;99.90
37050;DHT22;22958;51.232;6.826;2024-03-29T06:34:47;8.50;1.00
37050;DHT22;22958;51.232;6.826;2024-03-29T06:37:13;8.50;99.90
37050;DHT22;22958;51.232;6.826;2024-03-29T06:39:39;8.50;38.30
37050;DHT22;22958;51.232;6.826;2024-03-29T06:42:05;8.60;99.90
37050;DHT22;22958;51.232;6.826;2024-03-29T06:44:34;8.60;99.90
37050;DHT22;22958;51.232;6.826;2024-03-29T06:47:00;8.60;1.00
37050;DHT22;22958;51.232;6.826;2024-03-29T06:49:25;8.70;99.90
37050;DHT22;22958;51.232;6.826;2024-03-29T06:51:51;8.70;1.00
37050;DHT22;22958;51.232;6.826;2024-03-29T06:54:17;8.70;99.80
37050;DHT22;22958;51.232;6.826;2024-03-29T06:56:48;8.80;99.90
37050;DHT22;22958;51.232;6.826;2024-03-29T06:59:13;8.80;1.00
37050;DHT22;22958;51.232;6.826;2024-03-29T07:01:39;8.80;1.00
37050;DHT22;22958;51.232;6.826;2024-03-29T07:04:04;8.90;1.00
37050;DHT22;22958;51.232;6.826;2024-03-29T07:06:30;8.90;1.00
37050;DHT22;22958;51.232;6.826;2024-03-29T07:08:55;9.00;99.90
37050;DHT22;22958;51.232;6.826;2024-03-29T07:11:21;9.00;99.90
37050;DHT22;22958;51.232;6.826;2024-03-29T07:13:46;9.00;1.00
37050;DHT22;22958;51.232;6.826;2024-03-29T07:16:12;9.10;99.90
37050;DHT22;22958;51.232;6.826;2024-03-29T07:18:37;9.10;99.90
37050;DHT22;22958;51.232;6.826;2024-03-29T07:21:03;9.20;99.90
37050;DHT22;22958;51.232;6.826;2024-03-29T07:23:29;9.20;99.90
37050;DHT22;22958;51.232;6.826;2024-03-29T07:25:59;9.30;91.30
37050;DHT22;22958;51.232;6.826;2024-03-29T07:28:26;9.40;99.90
37050;DHT22;22958;51.232;6.826;2024-03-29T07:30:51;9.40;1.00
37050;DHT22;22958;51.232;6.826;2024-03-29T07:33:18;9.50;99.90
37050;DHT22;22958;51.232;6.826;2024-03-29T07:35:46;9.60;99.90
37050;DHT22;22958;51.232;6.826;2024-03-29T07:38:13;9.60;26.30
37050;DHT22;22958;51.232;6.826;2024-03-29T07:40:41;9.70;1.00
37050;DHT22;22958;51.232;6.826;2024-03-29T07:43:06;9.60;1.00
37050;DHT22;22958;51.232;6.826;2024-03-29T07:45:32;9.60;1.00
37050;DHT22;22958;51.232;6.826;2024-03-29T07:47:57;9.70;99.90
37050;DHT22;22958;51.232;6.826;2024-03-29T07:50:23;9.70;67.90
37050;DHT22;22958;51.232;6.826;2024-03-29T07:52:50;9.70;99.90
37050;DHT22;22958;51.232;6.826;2024-03-29T07:55:16;9.70;1.00
37050;DHT22;22958;51.232;6.826;2024-03-29T07:57:42;9.80;99.90
37050;DHT22;22958;51.232;6.826;2024-03-29T08:00:07;9.90;1.00
37050;DHT22;22958;51.232;6.826;2024-03-29T08:02:35;10.00;1.00
37050;DHT22;22958;51.232;6.826;2024-03-29T08:05:01;10.00;1.00
37050;DHT22;22958;51.232;6.826;2024-03-29T08:07:26;10.10;1.00
37050;DHT22;22958;51.232;6.826;2024-03-29T08:09:52;10.20;1.00
37050;DHT22;22958;51.232;6.826;2024-03-29T08:12:17;10.20;1.00
37050;DHT22;22958;51.232;6.826;2024-03-29T08:14:44;10.30;99.90
37050;DHT22;22958;51.232;6.826;2024-03-29T08:17:09;10.30;90.20
37050;DHT22;22958;51.232;6.826;2024-03-29T08:19:40;10.30;99.90
37050;DHT22;22958;51.232;6.826;2024-03-29T08:22:08;10.40;1.00
37050;DHT22;22958;51.232;6.826;2024-03-29T08:24:36;10.50;1.00
37050;DHT22;22958;51.232;6.826;2024-03-29T08:27:02;10.50;1.00
37050;DHT22;22958;51.232;6.826;2024-03-29T08:29:27;10.50;30.90
37050;DHT22;22958;51.232;6.826;2024-03-29T08:31:53;10.60;1.00
37050;DHT22;22958;51.232;6.826;2024-03-29T08:34:19;10.70;99.90
37050;DHT22;22958;51.232;6.826;2024-03-29T08:36:44;10.80;99.90
37050;DHT22;22958;51.232;6.826;2024-03-29T08:39:10;10.90;99.90
37050;DHT22;22958;51.232;6.826;2024-03-29T08:41:36;11.00;99.90
37050;DHT22;22958;51.232;6.826;2024-03-29T08:44:02;11.00;99.90
37050;DHT22;22958;51.232;6.826;2024-03-29T08:46:28;11.10;13.40
37050;DHT22;22958;51.232;6.826;2024-03-29T08:48:54;11.10;1.00
37050;DHT22;22958;51.232;6.826;2024-03-29T08:51:20;11.00;1.00
37050;DHT22;22958;51.232;6.826;2024-03-29T08:53:46;11.00;99.90
37050;DHT22;22958;51.232;6.826;2024-03-29T08:56:12;10.90;99.90
37050;DHT22;22958;51.232;6.826;2024-03-29T08:58:38;11.00;99.90
37050;DHT22;22958;51.232;6.826;2024-03-29T09:01:04;11.10;99.90
37050;DHT22;22958;51.232;6.826;2024-03-29T09:03:30;11.10;99.90
37050;DHT22;22958;51.232;6.826;2024-03-29T09:05:56;11.20;99.90
37050;DHT22;22958;51.232;6.826;2024-03-29T09:08:21;11.30;99.90
37050;DHT22;22958;51.232;6.826;2024-03-29T09:10:47;11.40;99.90
37050;DHT22;22958;51.232;6.826;2024-03-29T09:13:13;11.50;99.90
37050;DHT22;22958;51.232;6.826;2024-03-29T09:15:38;11.50;1.00
37050;DHT22;22958;51.232;6.826;2024-03-29T09:18:04;11.60;99.90
37050;DHT22;22958;51.232;6.826;2024-03-29T09:20:43;11.80;1.00
37050;DHT22;22958;51.232;6.826;2024-03-29T09:23:10;12.00;99.90
37050;DHT22;22958;51.232;6.826;2024-03-29T09:25:39;12.20;99.90
37050;DHT22;22958;51.232;6.826;2024-03-29T09:28:05;12.40;99.90
37050;DHT22;22958;51.232;6.826;2024-03-29T09:30:32;12.60;99.90
37050;DHT22;22958;51.232;6.826;2024-03-29T09:32:58;12.70;1.00
37050;DHT22;22958;51.232;6.826;2024-03-29T09:35:23;12.90;1.00
37050;DHT22;22958;51.232;6.826;2024-03-29T09:37:50;12.90;99.90
37050;DHT22;22958;51.232;6.826;2024-03-29T09:40:16;13.10;99.90
37050;DHT22;22958;51.232;6.826;2024-03-29T09:42:44;13.10;26.70
37050;DHT22;22958;51.232;6.826;2024-03-29T09:45:10;13.10;28.60
37050;DHT22;22958;51.232;6.826;2024-03-29T09:47:36;13.20;99.90
37050;DHT22;22958;51.232;6.826;2024-03-29T09:50:04;13.20;46.40
37050;DHT22;22958;51.232;6.826;2024-03-29T09:52:33;13.20;1.00
37050;DHT22;22958;51.232;6.826;2024-03-29T09:55:00;13.10;12.10
37050;DHT22;22958;51.232;6.826;2024-03-29T09:57:26;13.10;1.00
37050;DHT22;22958;51.232;6.826;2024-03-29T09:59:56;13.20;1.00
37050;DHT22;22958;51.232;6.826;2024-03-29T10:02:26;13.20;1.00
37050;DHT22;22958;51.232;6.826;2024-03-29T10:04:54;13.30;1.00
37050;DHT22;22958;51.232;6.826;2024-03-29T10:07:21;13.30;1.00
37050;DHT22;22958;51.232;6.826;2024-03-29T10:09:47;13.40;1.00
37050;DHT22;22958;51.232;6.826;2024-03-29T10:12:13;13.50;1.00
37050;DHT22;22958;51.232;6.826;2024-03-29T10:14:46;13.50;1.00
37050;DHT22;22958;51.232;6.826;2024-03-29T10:17:16;13.50;1.00
37050;DHT22;22958;51.232;6.826;2024-03-29T10:19:43;13.50;1.00
37050;DHT22;22958;51.232;6.826;2024-03-29T10:22:08;13.50;1.00
37050;DHT22;22958;51.232;6.826;2024-03-29T10:24:34;13.60;99.90
37050;DHT22;22958;51.232;6.826;2024-03-29T10:26:59;13.70;99.90
37050;DHT22;22958;51.232;6.826;2024-03-29T10:29:29;13.60;99.90
37050;DHT22;22958;51.232;6.826;2024-03-29T10:31:57;13.70;99.90
37050;DHT22;22958;51.232;6.826;2024-03-29T10:34:24;13.80;99.90
37050;DHT22;22958;51.232;6.826;2024-03-29T10:36:50;13.80;99.90
37050;DHT22;22958;51.232;6.826;2024-03-29T10:39:16;13.80;99.90
37050;DHT22;22958;51.232;6.826;2024-03-29T10:41:43;13.90;99.90
37050;DHT22;22958;51.232;6.826;2024-03-29T10:44:10;14.00;99.90
37050;DHT22;22958;51.232;6.826;2024-03-29T10:46:40;14.20;99.90
37050;DHT22;22958;51.232;6.826;2024-03-29T10:49:09;14.30;99.90
37050;DHT22;22958;51.232;6.826;2024-03-29T10:51:38;14.60;99.90
37050;DHT22;22958;51.232;6.826;2024-03-29T10:54:05;14.70;99.90
37050;DHT22;22958;51.232;6.826;2024-03-29T10:56:32;14.80;99.90
37050;DHT22;22958;51.232;6.826;2024-03-29T10:59:05;14.90;99.90
37050;DHT22;22958;51.232;6.826;2024-03-29T11:01:33;15.10;88.30
37050;DHT22;22958;51.232;6.826;2024-03-29T11:04:09;15.10;44.40
37050;DHT22;22958;51.232;6.826;2024-03-29T11:06:38;15.10;29.50
37050;DHT22;22958;51.232;6.826;2024-03-29T11:09:08;15.40;24.00
37050;DHT22;22958;51.232;6.826;2024-03-29T11:11:37;15.60;3.70
37050;DHT22;22958;51.232;6.826;2024-03-29T11:14:09;15.90;1.00
37050;DHT22;22958;51.232;6.826;2024-03-29T11:16:35;16.00;1.00
37050;DHT22;22958;51.232;6.826;2024-03-29T11:19:02;15.90;1.00
37050;DHT22;22958;51.232;6.826;2024-03-29T11:21:31;15.60;1.00
37050;DHT22;22958;51.232;6.826;2024-03-29T11:23:57;15.50;1.00
37050;DHT22;22958;51.232;6.826;2024-03-29T11:26:26;15.30;1.00
37050;DHT22;22958;51.232;6.826;2024-03-29T11:28:53;15.30;1.00
37050;DHT22;22958;51.232;6.826;2024-03-29T11:31:23;15.40;1.00
37050;DHT22;22958;51.232;6.826;2024-03-29T11:33:49;15.30;1.00
37050;DHT22;22958;51.232;6.826;2024-03-29T11:36:22;15.20;1.00
37050;DHT22;22958;51.232;6.826;2024-03-29T11:38:52;15.20;1.00
37050;DHT22;22958;51.232;6.826;2024-03-29T11:41:20;15.30;1.00
37050;DHT22;22958;51.232;6.826;2024-03-29T11:43:49;15.50;1.00
37050;DHT22;22958;51.232;6.826;2024-03-29T11:46:15;15.70;1.00
37050;DHT22;22958;51.232;6.826;2024-03-29T11:48:44;15.60;1.00
37050;DHT22;22958;51.232;6.826;2024-03-29T11:51:13;15.40;1.00
37050;DHT22;22958;51.232;6.826;2024-03-29T11:53:40;15.30;1.00
37050;DHT22;22958;51.232;6.826;2024-03-29T11:56:06;15.30;1.00
37050;DHT22;22958;51.232;6.826;2024-03-29T11:58:33;15.30;1.00
37050;DHT22;22958;51.232;6.826;2024-03-29T12:00:59;15.30;1.00
37050;DHT22;22958;51.232;6.826;2024-03-29T12:03:26;15.20;1.00
37050;DHT22;22958;51.232;6.826;2024-03-29T12:05:53;15.10;1.00
37050;DHT22;22958;51.232;6.826;2024-03-29T12:08:29;15.10;1.00
37050;DHT22;22958;51.232;6.826;2024-03-29T12:11:00;15.00;1.00
37050;DHT22;22958;51.232;6.826;2024-03-29T12:13:26;15.00;1.00
37050;DHT22;22958;51.232;6.826;2024-03-29T12:15:52;15.00;1.00
37050;DHT22;22958;51.232;6.826;2024-03-29T12:18:20;15.00;1.00
37050;DHT22;22958;51.232;6.826;2024-03-29T12:20:46;15.10;1.00
37050;DHT22;22958;51.232;6.826;2024-03-29T12:23:15;15.10;1.00
37050;DHT22;22958;51.232;6.826;2024-03-29T12:25:41;15.10;1.00
37050;DHT22;22958;51.232;6.826;2024-03-29T12:28:06;15.10;1.00
37050;DHT22;22958;51.232;6.826;2024-03-29T12:30:33;15.10;1.00
37050;DHT22;22958;51.232;6.826;2024-03-29T12:33:06;15.10;1.00
37050;DHT22;22958;51.232;6.826;2024-03-29T12:35:33;15.00;1.00
37050;DHT22;22958;51.232;6.826;2024-03-29T12:38:00;15.10;1.00
37050;DHT22;22958;51.232;6.826;2024-03-29T12:40:28;15.20;1.00
37050;DHT22;22958;51.232;6.826;2024-03-29T12:42:55;15.20;1.00
37050;DHT22;22958;51.232;6.826;2024-03-29T12:45:21;15.10;1.00
37050;DHT22;22958;51.232;6.826;2024-03-29T12:47:48;15.00;1.00
37050;DHT22;22958;51.232;6.826;2024-03-29T12:50:25;15.10;1.00
37050;DHT22;22958;51.232;6.826;2024-03-29T12:52:57;15.10;1.00
37050;DHT22;22958;51.232;6.826;2024-03-29T12:55:23;15.20;1.00
37050;DHT22;22958;51.232;6.826;2024-03-29T12:57:49;15.20;1.00
37050;DHT22;22958;51.232;6.826;2024-03-29T13:00:15;15.30;1.00
37050;DHT22;22958;51.232;6.826;2024-03-29T13:02:41;15.50;1.00
37050;DHT22;22958;51.232;6.826;2024-03-29T13:05:07;15.60;1.00
37050;DHT22;22958;51.232;6.826;2024-03-29T13:07:33;15.60;1.00
37050;DHT22;22958;51.232;6.826;2024-03-29T13:10:02;15.50;1.00
37050;DHT22;22958;51.232;6.826;2024-03-29T13:12:31;15.50;1.00
37050;DHT22;22958;51.232;6.826;2024-03-29T13:15:02;15.50;1.00
37050;DHT22;22958;51.232;6.826;2024-03-29T13:17:31;15.50;1.00
37050;DHT22;22958;51.232;6.826;2024-03-29T13:19:57;15.50;1.00
37050;DHT22;22958;51.232;6.826;2024-03-29T13:22:22;15.50;1.00
37050;DHT22;22958;51.232;6.826;2024-03-29T13:24:48;15.60;1.00
37050;DHT22;22958;51.232;6.826;2024-03-29T13:27:13;15.70;1.00
37050;DHT22;22958;51.232;6.826;2024-03-29T13:29:39;15.80;1.00
37050;DHT22;22958;51.232;6.826;2024-03-29T13:32:05;16.10;1.00
37050;DHT22;22958;51.232;6.826;2024-03-29T13:34:30;17.00;1.00
37050;DHT22;22958;51.232;6.826;2024-03-29T13:36:56;17.40;1.00
37050;DHT22;22958;51.232;6.826;2024-03-29T13:39:21;18.20;1.00
37050;DHT22;22958;51.232;6.826;2024-03-29T13:41:49;18.40;1.00
37050;DHT22;22958;51.232;6.826;2024-03-29T13:44:14;18.80;1.00
37050;DHT22;22958;51.232;6.826;2024-03-29T13:46:43;18.80;1.00
37050;DHT22;22958;51.232;6.826;2024-03-29T13:49:08;18.60;1.00
37050;DHT22;22958;51.232;6.826;2024-03-29T13:51:34;18.00;1.00
37050;DHT22;22958;51.232;6.826;2024-03-29T13:53:59;17.80;1.00
37050;DHT22;22958;51.232;6.826;2024-03-29T13:56:25;17.50;1.00
37050;DHT22;22958;51.232;6.826;2024-03-29T13:58:51;17.30;1.00
37050;DHT22;22958;51.232;6.826;2024-03-29T14:01:17;17.90;1.00
37050;DHT22;22958;51.232;6.826;2024-03-29T14:03:43;18.90;1.00
37050;DHT22;22958;51.232;6.826;2024-03-29T14:06:09;19.50;1.00
37050;DHT22;22958;51.232;6.826;2024-03-29T14:08:35;19.70;1.00
37050;DHT22;22958;51.232;6.826;2024-03-29T14:11:01;19.20;1.00
37050;DHT22;22958;51.232;6.826;2024-03-29T14:13:26;18.60;1.00
37050;DHT22;22958;51.232;6.826;2024-03-29T14:15:53;18.30;1.00
37050;DHT22;22958;51.232;6.826;2024-03-29T14:18:19;18.00;1.00
37050;DHT22;22958;51.232;6.826;2024-03-29T14:20:45;18.00;1.00
37050;DHT22;22958;51.232;6.826;2024-03-29T14:23:10;18.20;1.00
37050;DHT22;22958;51.232;6.826;2024-03-29T14:25:38;18.60;1.00
37050;DHT22;22958;51.232;6.826;2024-03-29T14:28:05;18.40;1.00
37050;DHT22;22958;51.232;6.826;2024-03-29T14:30:30;18.00;1.00
37050;DHT22;22958;51.232;6.826;2024-03-29T14:32:56;17.70;1.00
37050;DHT22;22958;51.232;6.826;2024-03-29T14:35:22;18.10;1.00
37050;DHT22;22958;51.232;6.826;2024-03-29T14:37:48;18.00;1.00
37050;DHT22;22958;51.232;6.826;2024-03-29T14:40:14;18.10;1.00
37050;DHT22;22958;51.232;6.826;2024-03-29T14:42:42;18.40;1.00
37050;DHT22;22958;51.232;6.826;2024-03-29T14:45:09;19.00;1.00
37050;DHT22;22958;51.232;6.826;2024-03-29T14:47:37;18.60;1.00
37050;DHT22;22958;51.232;6.826;2024-03-29T14:50:03;18.20;1.00
37050;DHT22;22958;51.232;6.826;2024-03-29T14:52:36;17.90;1.00
37050;DHT22;22958;51.232;6.826;2024-03-29T14:55:02;17.80;1.00
37050;DHT22;22958;51.232;6.826;2024-03-29T14:57:28;17.60;1.00
37050;DHT22;22958;51.232;6.826;2024-03-29T14:59:53;17.40;1.00
37050;DHT22;22958;51.232;6.826;2024-03-29T15:02:19;17.30;1.00
37050;DHT22;22958;51.232;6.826;2024-03-29T15:04:44;16.90;1.00
37050;DHT22;22958;51.232;6.826;2024-03-29T15:07:10;16.60;1.00
37050;DHT22;22958;51.232;6.826;2024-03-29T15:09:35;16.30;1.00
37050;DHT22;22958;51.232;6.826;2024-03-29T15:12:01;16.30;1.00
37050;DHT22;22958;51.232;6.826;2024-03-29T15:14:30;16.20;1.00
37050;DHT22;22958;51.232;6.826;2024-03-29T15:16:56;16.00;1.00
37050;DHT22;22958;51.232;6.826;2024-03-29T15:19:22;15.90;1.00
37050;DHT22;22958;51.232;6.826;2024-03-29T15:21:48;15.80;1.00
37050;DHT22;22958;51.232;6.826;2024-03-29T15:24:14;15.70;1.00
37050;DHT22;22958;51.232;6.826;2024-03-29T15:26:40;15.60;1.00
37050;DHT22;22958;51.232;6.826;2024-03-29T15:29:05;15.50;1.00
37050;DHT22;22958;51.232;6.826;2024-03-29T15:31:38;15.50;1.00
37050;DHT22;22958;51.232;6.826;2024-03-29T15:34:05;15.50;1.00
37050;DHT22;22958;51.232;6.826;2024-03-29T15:36:31;15.50;1.00
37050;DHT22;22958;51.232;6.826;2024-03-29T15:38:57;15.40;1.00
37050;DHT22;22958;51.232;6.826;2024-03-29T15:41:37;15.40;1.00
37050;DHT22;22958;51.232;6.826;2024-03-29T15:44:06;15.30;1.00
37050;DHT22;22958;51.232;6.826;2024-03-29T15:46:35;15.20;1.00